Time;durP1;ratioP1;P1;durP2;ratioP2;P2;SDS_P1;SDS_P2;PMS_P1;PMS_P2;Temp;Humidity;BMP_temperature;BMP_pressure;BME280_temperature;BME280_humidity;BME280_pressure;Samples;Min_cycle;Max_cycle;Signal;HPM_P1;HPM_P2
2022/02/16 00:01:19;;;;;;;184.20;81.43;;;-0.30;99.90;;;;;;5014877;28;20076;-82
2022/02/16 00:03:44;;;;;;;175.63;81.90;;;-0.30;99.90;;;;;;5013834;28;20026;-81
2022/02/16 00:06:10;;;;;;;171.77;80.57;;;-0.30;99.90;;;;;;5014875;28;20049;-81
2022/02/16 00:08:35;;;;;;;165.50;74.20;;;-0.20;99.90;;;;;;5013830;28;20422;-80
2022/02/16 00:11:01;;;;;;;148.68;71.78;;;-0.20;99.90;;;;;;5015297;28;20603;-80
2022/02/16 00:13:26;;;;;;;136.18;69.78;;;-0.10;99.90;;;;;;5015270;28;20030;-74
2022/02/16 00:15:52;;;;;;;135.82;65.47;;;0.00;99.90;;;;;;5014064;28;20571;-75
2022/02/16 00:18:18;;;;;;;155.15;75.38;;;0.00;99.90;;;;;;5014001;28;20080;-74
2022/02/16 00:20:44;;;;;;;299.67;129.82;;;0.00;99.90;;;;;;5015208;28;20029;-81
2022/02/16 00:23:10;;;;;;;279.35;127.95;;;0.00;99.90;;;;;;5013891;28;20022;-80
2022/02/16 00:25:36;;;;;;;253.73;112.07;;;-0.10;99.90;;;;;;5013918;28;20025;-80
2022/02/16 00:28:02;;;;;;;218.98;90.97;;;-0.10;99.90;;;;;;5015000;28;20387;-80
2022/02/16 00:30:27;;;;;;;199.48;94.25;;;-0.10;99.90;;;;;;5014978;28;20030;-75
2022/02/16 00:32:53;;;;;;;215.68;99.60;;;-0.20;99.90;;;;;;5013682;28;20022;-74
2022/02/16 00:35:19;;;;;;;228.02;99.50;;;-0.20;99.90;;;;;;5014917;28;20391;-75
2022/02/16 00:37:45;;;;;;;262.25;111.60;;;-0.20;99.90;;;;;;5014875;28;20026;-80
2022/02/16 00:40:11;;;;;;;288.77;126.82;;;-0.20;99.90;;;;;;5013565;28;20022;-80
2022/02/16 00:42:37;;;;;;;275.67;125.65;;;-0.20;99.90;;;;;;5013554;28;20030;-80
2022/02/16 00:45:03;;;;;;;279.30;126.75;;;-0.20;99.90;;;;;;5014730;28;20040;-74
2022/02/16 00:47:29;;;;;;;282.58;124.38;;;-0.10;99.90;;;;;;5013377;28;20030;-80
2022/02/16 00:49:54;;;;;;;274.63;121.95;;;-0.10;99.90;;;;;;5013272;28;20057;-74
2022/02/16 00:52:22;;;;;;;284.40;124.03;;;-0.10;99.90;;;;;;5014637;28;20026;-81
2022/02/16 00:54:48;;;;;;;272.98;119.20;;;-0.10;99.90;;;;;;5013328;28;20022;-80
2022/02/16 00:57:13;;;;;;;267.17;117.05;;;0.00;99.90;;;;;;5013147;28;20030;-81
2022/02/16 00:59:39;;;;;;;232.75;104.47;;;0.00;99.90;;;;;;5013057;28;20034;-81
2022/02/16 01:02:04;;;;;;;229.18;108.78;;;0.10;99.90;;;;;;5014341;28;20048;-74
2022/02/16 01:04:30;;;;;;;249.05;108.93;;;0.10;99.90;;;;;;5014325;28;20022;-80
2022/02/16 01:06:55;;;;;;;260.42;114.07;;;0.10;99.90;;;;;;5013054;28;20026;-74
2022/02/16 01:09:21;;;;;;;264.08;113.50;;;0.10;99.90;;;;;;5014276;28;20087;-74
2022/02/16 01:11:47;;;;;;;252.98;113.70;;;0.20;99.90;;;;;;5013359;28;20045;-80
2022/02/16 01:14:12;;;;;;;238.45;105.63;;;0.20;99.90;;;;;;5014404;28;20033;-80
2022/02/16 01:16:38;;;;;;;236.25;107.07;;;0.20;99.90;;;;;;5014253;28;20030;-81
2022/02/16 01:19:04;;;;;;;248.77;114.40;;;0.20;99.90;;;;;;5014145;28;20033;-75
2022/02/16 01:21:30;;;;;;;244.35;112.97;;;0.20;99.90;;;;;;5012926;28;20030;-81
2022/02/16 01:23:56;;;;;;;242.32;114.30;;;0.30;99.90;;;;;;5012826;28;20030;-80
2022/02/16 01:26:23;;;;;;;222.18;106.03;;;0.30;99.90;;;;;;5014004;28;20056;-80
2022/02/16 01:28:49;;;;;;;205.60;94.15;;;0.30;99.90;;;;;;5012655;28;20494;-74
2022/02/16 01:31:14;;;;;;;171.63;80.75;;;0.40;99.90;;;;;;5013856;28;20029;-74
2022/02/16 01:33:40;;;;;;;171.40;81.00;;;0.40;99.90;;;;;;5012731;28;20033;-74
2022/02/16 01:36:06;;;;;;;161.27;72.97;;;0.40;99.90;;;;;;5012541;28;20026;-75
2022/02/16 01:38:31;;;;;;;152.65;71.93;;;0.40;99.90;;;;;;5012611;28;20026;-80
2022/02/16 01:40:57;;;;;;;145.50;72.00;;;0.40;99.90;;;;;;5012533;28;20084;-74
2022/02/16 01:43:23;;;;;;;141.15;68.97;;;0.40;99.90;;;;;;5013808;28;20096;-78
2022/02/16 01:45:49;;;;;;;139.35;67.85;;;0.40;99.90;;;;;;5013579;28;20030;-80
2022/02/16 01:48:14;;;;;;;141.02;67.85;;;0.40;99.90;;;;;;5013630;28;20542;-80
2022/02/16 01:50:40;;;;;;;139.13;65.07;;;0.40;99.90;;;;;;5013374;28;20069;-80
2022/02/16 01:53:06;;;;;;;135.75;65.47;;;0.40;99.90;;;;;;5013637;28;20105;-74
2022/02/16 01:55:32;;;;;;;141.55;69.65;;;0.40;99.90;;;;;;5013628;28;20065;-75
2022/02/16 01:58:03;;;;;;;138.93;70.50;;;0.50;99.90;;;;;;5012243;28;20468;-74
2022/02/16 02:00:28;;;;;;;145.38;69.38;;;0.50;99.90;;;;;;5013536;28;20030;-81
2022/02/16 02:02:54;;;;;;;171.13;79.45;;;0.50;99.90;;;;;;5012283;28;20014;-81
2022/02/16 02:05:19;;;;;;;184.10;87.88;;;0.50;99.90;;;;;;5012192;28;20018;-80
2022/02/16 02:07:45;;;;;;;198.25;95.80;;;0.40;99.90;;;;;;5013561;28;20029;-74
2022/02/16 02:10:11;;;;;;;220.45;102.70;;;0.40;99.90;;;;;;5013456;28;20026;-81
2022/02/16 02:12:48;;;;;;;204.43;96.82;;;0.30;99.90;;;;;;5012140;28;20087;-81
2022/02/16 02:15:14;;;;;;;208.80;97.18;;;0.20;99.90;;;;;;5012164;28;20022;-74
2022/02/16 02:17:40;;;;;;;172.90;84.97;;;0.20;99.90;;;;;;5012213;28;20026;-80
2022/02/16 02:20:24;;;;;;;205.60;97.05;;;0.20;99.90;;;;;;5013422;28;20029;-75
2022/02/16 02:22:52;;;;;;;193.32;90.53;;;0.10;99.90;;;;;;5013808;28;20391;-74
2022/02/16 02:25:17;;;;;;;197.13;93.93;;;0.10;99.90;;;;;;5016130;28;20365;-80
2022/02/16 02:27:43;;;;;;;197.15;93.30;;;0.00;99.90;;;;;;5015942;28;20080;-74
2022/02/16 02:30:10;;;;;;;193.18;93.70;;;0.00;99.90;;;;;;5017212;28;20073;-80
2022/02/16 02:32:38;;;;;;;205.40;94.65;;;0.00;99.90;;;;;;5015870;28;20549;-80
2022/02/16 02:35:05;;;;;;;209.88;101.70;;;-0.10;99.90;;;;;;5017105;28;20029;-80
2022/02/16 02:37:36;;;;;;;202.50;98.43;;;-0.10;99.90;;;;;;5017053;28;20030;-80
2022/02/16 02:40:01;;;;;;;209.82;93.97;;;-0.10;99.90;;;;;;5017058;28;20030;-74
2022/02/16 02:42:27;;;;;;;186.27;89.20;;;0.00;99.90;;;;;;5025308;28;20103;-80
2022/02/16 02:44:52;;;;;;;165.52;75.07;;;-0.10;99.90;;;;;;5036795;28;20025;-75
2022/02/16 02:47:18;;;;;;;162.13;80.22;;;0.00;99.90;;;;;;5035455;28;20018;-74
2022/02/16 02:49:45;;;;;;;161.70;83.57;;;0.00;99.90;;;;;;5035335;28;20045;-80
2022/02/16 02:52:10;;;;;;;171.23;82.30;;;0.00;99.90;;;;;;5036604;28;20025;-74
2022/02/16 02:54:36;;;;;;;174.30;86.05;;;0.00;99.90;;;;;;5035337;28;20036;-75
2022/02/16 02:57:02;;;;;;;152.25;75.75;;;0.00;99.90;;;;;;5036491;28;20029;-81
2022/02/16 02:59:27;;;;;;;159.57;77.00;;;0.10;99.90;;;;;;5036422;28;20028;-80
2022/02/16 03:01:53;;;;;;;168.85;77.65;;;0.00;99.90;;;;;;5036313;28;20044;-74
2022/02/16 03:04:19;;;;;;;147.27;73.68;;;0.00;99.90;;;;;;5035216;28;20030;-75
2022/02/16 03:06:44;;;;;;;146.77;74.72;;;0.10;99.90;;;;;;5036441;28;20059;-74
2022/02/16 03:09:10;;;;;;;148.15;74.40;;;0.10;99.90;;;;;;5036370;28;20022;-81
2022/02/16 03:11:35;;;;;;;148.10;72.03;;;0.20;99.90;;;;;;5036149;28;20037;-80
2022/02/16 03:14:01;;;;;;;143.40;71.25;;;0.20;99.90;;;;;;5036246;28;20025;-81
2022/02/16 03:16:26;;;;;;;152.48;71.25;;;0.30;99.90;;;;;;5034961;28;20026;-75
2022/02/16 03:18:52;;;;;;;148.45;73.03;;;0.40;99.90;;;;;;5036098;28;20029;-80
2022/02/16 03:21:18;;;;;;;136.02;74.43;;;0.50;99.90;;;;;;5036127;28;20033;-80
2022/02/16 03:23:43;;;;;;;144.98;70.28;;;0.50;99.90;;;;;;5035882;28;20037;-75
2022/02/16 03:26:10;;;;;;;133.68;68.15;;;0.50;99.90;;;;;;5036043;28;20100;-74
2022/02/16 03:28:36;;;;;;;138.65;69.15;;;0.60;99.90;;;;;;5035982;28;20109;-81
2022/02/16 03:31:01;;;;;;;159.55;79.03;;;0.60;99.90;;;;;;5034598;28;20120;-80
2022/02/16 03:33:28;;;;;;;155.10;77.05;;;0.60;99.90;;;;;;5035927;28;20034;-74
2022/02/16 03:35:54;;;;;;;155.02;76.70;;;0.60;99.90;;;;;;5033954;28;20056;-75
2022/02/16 03:38:19;;;;;;;150.65;75.55;;;0.70;99.90;;;;;;5035814;28;20030;-79
2022/02/16 03:40:45;;;;;;;153.57;73.63;;;0.60;99.90;;;;;;5035814;28;20022;-77
2022/02/16 03:43:11;;;;;;;151.93;77.55;;;0.70;99.90;;;;;;5035620;28;20022;-81
2022/02/16 03:45:36;;;;;;;154.02;73.30;;;0.70;99.90;;;;;;5035719;28;20097;-74
2022/02/16 03:48:02;;;;;;;143.45;71.97;;;0.70;99.90;;;;;;5034350;28;20063;-81
2022/02/16 03:50:27;;;;;;;144.23;69.60;;;0.60;99.90;;;;;;5034048;28;20045;-81
2022/02/16 03:52:53;;;;;;;145.45;69.43;;;0.60;99.90;;;;;;5034282;28;20032;-74
2022/02/16 03:55:19;;;;;;;135.63;65.25;;;0.50;99.90;;;;;;5035447;28;20072;-74
2022/02/16 03:57:45;;;;;;;139.00;69.13;;;0.50;99.90;;;;;;5035505;28;20021;-80
2022/02/16 04:00:12;;;;;;;138.40;70.07;;;0.50;99.90;;;;;;5034112;28;20048;-80
2022/02/16 04:02:37;;;;;;;152.73;76.43;;;0.50;99.90;;;;;;5035391;28;20025;-80
2022/02/16 04:05:04;;;;;;;155.20;76.32;;;0.60;99.90;;;;;;5034063;28;20492;-75
2022/02/16 04:07:31;;;;;;;146.40;72.50;;;0.60;99.90;;;;;;5034095;28;20116;-80
2022/02/16 04:09:56;;;;;;;161.10;77.70;;;0.60;99.90;;;;;;5034127;28;20501;-74
2022/02/16 04:12:22;;;;;;;135.98;68.07;;;0.60;99.90;;;;;;5035060;28;20041;-74
2022/02/16 04:14:47;;;;;;;142.88;69.03;;;0.60;99.90;;;;;;5035228;28;20467;-76
2022/02/16 04:17:13;;;;;;;141.88;69.28;;;0.50;99.90;;;;;;5035153;28;20155;-74
2022/02/16 04:19:39;;;;;;;138.63;68.65;;;0.60;99.90;;;;;;5033965;28;20616;-74
2022/02/16 04:22:04;;;;;;;138.75;72.65;;;0.60;99.90;;;;;;5035007;28;20033;-74
2022/02/16 04:24:30;;;;;;;163.05;78.28;;;0.60;99.90;;;;;;5033917;28;20360;-76
2022/02/16 04:26:56;;;;;;;138.07;73.32;;;0.60;99.90;;;;;;5034813;28;20022;-81
2022/02/16 04:29:21;;;;;;;137.05;69.90;;;0.60;99.90;;;;;;5033572;28;20022;-81
2022/02/16 04:31:47;;;;;;;138.73;69.32;;;0.70;99.90;;;;;;5034745;28;20041;-81
2022/02/16 04:34:13;;;;;;;146.13;71.10;;;0.70;99.90;;;;;;5033633;28;20053;-74
2022/02/16 04:36:39;;;;;;;130.38;70.53;;;0.60;99.90;;;;;;5034762;28;20057;-80
2022/02/16 04:39:05;;;;;;;139.70;69.43;;;0.60;99.90;;;;;;5034652;28;20049;-80
2022/02/16 04:41:31;;;;;;;126.43;66.68;;;0.60;99.90;;;;;;5033406;28;20029;-75
2022/02/16 04:43:56;;;;;;;126.43;65.47;;;0.50;99.90;;;;;;5034559;28;20382;-74
2022/02/16 04:46:22;;;;;;;125.75;62.92;;;0.50;99.90;;;;;;5033216;28;20573;-80
2022/02/16 04:48:47;;;;;;;122.85;60.35;;;0.50;99.90;;;;;;5033128;28;20037;-81
2022/02/16 04:51:13;;;;;;;122.70;58.80;;;0.50;99.90;;;;;;5034327;28;20411;-74
2022/02/16 04:53:39;;;;;;;117.25;58.80;;;0.50;99.90;;;;;;5034454;28;20017;-80
2022/02/16 04:56:06;;;;;;;114.43;59.95;;;0.50;99.90;;;;;;5034366;28;20026;-75
2022/02/16 04:58:32;;;;;;;125.80;61.97;;;0.40;99.90;;;;;;5034436;28;20390;-80
2022/02/16 05:00:58;;;;;;;128.20;67.25;;;0.40;99.90;;;;;;5032709;28;20026;-75
2022/02/16 05:03:23;;;;;;;170.35;91.47;;;0.40;99.90;;;;;;5032934;28;20033;-74
2022/02/16 05:05:49;;;;;;;140.25;72.03;;;0.40;99.90;;;;;;5034175;28;20028;-75
2022/02/16 05:08:15;;;;;;;116.32;61.97;;;0.30;99.90;;;;;;5032908;28;20096;-74
2022/02/16 05:10:40;;;;;;;120.82;61.63;;;0.30;99.90;;;;;;5034049;28;20084;-75
2022/02/16 05:13:07;;;;;;;133.15;66.20;;;0.30;99.90;;;;;;5034100;28;20363;-81
2022/02/16 05:15:32;;;;;;;143.32;76.93;;;0.30;99.90;;;;;;5033964;28;20407;-81
2022/02/16 05:17:59;;;;;;;149.38;73.13;;;0.40;99.90;;;;;;5033822;28;20030;-81
2022/02/16 05:20:25;;;;;;;124.88;66.40;;;0.40;99.90;;;;;;5032570;28;20017;-80
2022/02/16 05:22:50;;;;;;;134.10;64.93;;;0.40;99.90;;;;;;5032538;28;20055;-80
2022/02/16 05:25:16;;;;;;;136.32;70.57;;;0.40;99.90;;;;;;5032614;28;20443;-76
2022/02/16 05:27:41;;;;;;;133.48;67.35;;;0.40;99.90;;;;;;5033812;28;20025;-80
2022/02/16 05:30:08;;;;;;;138.48;65.00;;;0.40;99.90;;;;;;5033633;28;20387;-80
2022/02/16 05:32:33;;;;;;;138.00;65.85;;;0.50;99.90;;;;;;5033636;28;20056;-81
2022/02/16 05:34:59;;;;;;;124.13;61.45;;;0.50;99.90;;;;;;5033619;28;20025;-80
2022/02/16 05:37:26;;;;;;;114.30;61.05;;;0.50;99.90;;;;;;5033676;28;20028;-74
2022/02/16 05:39:51;;;;;;;121.03;59.10;;;0.60;99.90;;;;;;5032293;28;20028;-74
2022/02/16 05:42:17;;;;;;;123.10;60.22;;;0.60;99.90;;;;;;5032088;28;20021;-75
2022/02/16 05:44:42;;;;;;;126.55;63.92;;;0.70;99.90;;;;;;5033556;28;20030;-80
2022/02/16 05:47:08;;;;;;;110.50;58.47;;;0.70;99.90;;;;;;5033301;28;20018;-74
2022/02/16 05:49:34;;;;;;;115.75;60.83;;;0.80;99.90;;;;;;5029276;28;20068;-74
2022/02/16 05:51:59;;;;;;;114.57;58.13;;;0.70;99.90;;;;;;5013364;28;20033;-81
2022/02/16 05:54:25;;;;;;;110.57;57.83;;;0.80;99.90;;;;;;5013498;28;20021;-81
2022/02/16 05:56:51;;;;;;;113.75;61.00;;;0.80;99.90;;;;;;5013365;28;21745;-81
2022/02/16 05:59:16;;;;;;;112.22;59.40;;;0.90;99.90;;;;;;5013019;28;20022;-80
2022/02/16 06:01:42;;;;;;;112.68;58.08;;;1.00;99.90;;;;;;5013382;28;20030;-81
2022/02/16 06:04:08;;;;;;;118.00;59.05;;;0.90;99.90;;;;;;5012835;28;20113;-80
2022/02/16 06:06:35;;;;;;;121.15;59.20;;;1.00;99.90;;;;;;5012034;28;20480;-80
2022/02/16 06:09:01;;;;;;;117.63;58.63;;;1.00;99.90;;;;;;5013333;28;20530;-80
2022/02/16 06:11:27;;;;;;;122.65;62.25;;;1.10;99.90;;;;;;5013261;28;20034;-75
2022/02/16 06:13:52;;;;;;;142.70;70.53;;;1.10;99.90;;;;;;5013174;28;20030;-76
2022/02/16 06:16:18;;;;;;;138.93;70.13;;;1.10;99.90;;;;;;5011954;28;20036;-75
2022/02/16 06:18:44;;;;;;;122.45;64.68;;;1.00;99.90;;;;;;5012609;28;20033;-74
2022/02/16 06:21:09;;;;;;;127.57;63.95;;;1.00;99.90;;;;;;5003163;28;20019;-75
2022/02/16 06:23:35;;;;;;;125.78;62.25;;;1.10;99.90;;;;;;5008721;28;20026;-80
2022/02/16 06:26:01;;;;;;;183.00;84.68;;;1.10;99.90;;;;;;5008744;28;20168;-75
2022/02/16 06:28:26;;;;;;;153.20;75.72;;;1.10;99.90;;;;;;4992242;28;20022;-81
2022/02/16 06:30:52;;;;;;;162.43;76.70;;;1.10;99.90;;;;;;5008547;28;20033;-80
2022/02/16 06:33:18;;;;;;;140.98;69.28;;;1.10;99.90;;;;;;4993568;28;20431;-81
2022/02/16 06:35:43;;;;;;;142.32;69.95;;;1.10;99.90;;;;;;4992954;28;20023;-81
2022/02/16 06:38:10;;;;;;;124.40;60.55;;;1.10;99.90;;;;;;4992159;28;20502;-74
2022/02/16 06:40:36;;;;;;;107.35;55.05;;;1.10;99.90;;;;;;5018827;28;20065;-75
2022/02/16 06:43:02;;;;;;;107.05;58.58;;;1.00;99.90;;;;;;5011327;28;20030;-75
2022/02/16 06:45:28;;;;;;;109.88;56.97;;;1.10;99.90;;;;;;5011948;28;20033;-75
2022/02/16 06:47:53;;;;;;;112.32;57.72;;;1.10;99.90;;;;;;5009219;28;20103;-75
2022/02/16 06:50:19;;;;;;;106.78;57.05;;;1.00;99.90;;;;;;5009759;28;20049;-74
2022/02/16 06:52:45;;;;;;;110.47;57.13;;;1.00;99.90;;;;;;5007836;28;20030;-74
2022/02/16 06:55:10;;;;;;;110.50;56.88;;;1.00;99.90;;;;;;5012227;28;20062;-81
2022/02/16 06:57:36;;;;;;;109.68;56.28;;;1.10;99.90;;;;;;5010651;28;20018;-81
2022/02/16 07:00:03;;;;;;;110.72;57.80;;;1.20;99.90;;;;;;5012457;28;20026;-81
2022/02/16 07:02:28;;;;;;;112.63;59.20;;;1.20;99.90;;;;;;5012617;28;20060;-81
2022/02/16 07:04:54;;;;;;;122.38;60.28;;;1.20;99.90;;;;;;5012703;28;20054;-81
2022/02/16 07:07:20;;;;;;;113.60;59.15;;;1.30;99.90;;;;;;5011357;28;20130;-81
2022/02/16 07:09:45;;;;;;;139.82;67.55;;;1.40;99.90;;;;;;5011136;28;20033;-81
2022/02/16 07:12:11;;;;;;;124.50;59.60;;;1.50;99.90;;;;;;5014187;28;20029;-82
2022/02/16 07:14:36;;;;;;;251.43;105.07;;;1.60;99.90;;;;;;5013684;28;20025;-82
2022/02/16 07:17:02;;;;;;;179.60;83.13;;;1.80;99.90;;;;;;5013668;28;20617;-81
2022/02/16 07:19:28;;;;;;;139.48;65.43;;;1.90;99.90;;;;;;5015392;28;20053;-82
2022/02/16 07:21:56;;;;;;;106.00;52.88;;;2.00;99.90;;;;;;5014566;28;20030;-80
2022/02/16 07:24:22;;;;;;;93.65;47.78;;;2.20;99.90;;;;;;5015020;28;20364;-80
2022/02/16 07:26:47;;;;;;;93.15;46.90;;;2.30;99.90;;;;;;5015937;28;20033;-79
2022/02/16 07:29:13;;;;;;;90.78;43.67;;;2.50;99.90;;;;;;5014649;28;20566;-79
2022/02/16 07:31:39;;;;;;;77.03;39.30;;;2.60;99.90;;;;;;5015658;28;20045;-80
2022/02/16 07:34:04;;;;;;;75.57;39.08;;;2.70;99.90;;;;;;5014369;28;20124;-79
2022/02/16 07:36:30;;;;;;;69.10;35.78;;;2.90;99.90;;;;;;5014966;28;20081;-80
2022/02/16 07:38:55;;;;;;;60.75;34.58;;;3.10;99.90;;;;;;5014998;28;20394;-80
2022/02/16 07:41:21;;;;;;;61.33;32.20;;;3.30;99.90;;;;;;5013762;28;20018;-80
2022/02/16 07:43:47;;;;;;;59.70;31.75;;;3.40;99.90;;;;;;5013628;28;20022;-80
2022/02/16 07:46:12;;;;;;;56.50;29.38;;;3.60;99.90;;;;;;5014993;28;20036;-80
2022/02/16 07:48:38;;;;;;;48.28;28.60;;;3.70;99.90;;;;;;5014895;28;20484;-80
2022/02/16 07:51:03;;;;;;;55.08;27.90;;;3.90;99.90;;;;;;5014859;28;20123;-80
2022/02/16 07:53:30;;;;;;;56.13;26.98;;;4.00;99.90;;;;;;5013850;28;20026;-80
2022/02/16 07:55:56;;;;;;;50.33;25.50;;;4.20;99.90;;;;;;5013468;28;20037;-80
2022/02/16 07:58:23;;;;;;;47.53;25.33;;;4.30;99.90;;;;;;5015225;28;20380;-80
2022/02/16 08:00:48;;;;;;;41.15;23.98;;;4.40;99.90;;;;;;5015316;28;20036;-80
2022/02/16 08:03:14;;;;;;;36.45;21.65;;;4.50;99.90;;;;;;5015481;28;20022;-80
2022/02/16 08:05:41;;;;;;;37.50;21.75;;;4.60;99.90;;;;;;5015110;28;20041;-80
2022/02/16 08:08:07;;;;;;;33.55;20.02;;;4.70;99.90;;;;;;5015048;28;20495;-80
2022/02/16 08:10:33;;;;;;;33.35;18.55;;;4.80;99.90;;;;;;5015138;28;20054;-80
2022/02/16 08:12:59;;;;;;;36.63;18.27;;;5.00;99.90;;;;;;5015003;28;20050;-80
2022/02/16 08:15:26;;;;;;;35.88;17.50;;;5.10;99.90;;;;;;5015088;28;20026;-80
2022/02/16 08:17:52;;;;;;;30.38;17.92;;;5.20;99.90;;;;;;5014892;28;20029;-79
2022/02/16 08:20:19;;;;;;;22.55;13.70;;;5.30;99.90;;;;;;5014705;28;20053;-79
2022/02/16 08:22:45;;;;;;;20.67;13.30;;;5.40;96.70;;;;;;5014617;28;20026;-79
2022/02/16 08:25:11;;;;;;;22.02;12.88;;;5.50;92.80;;;;;;5013524;28;20082;-79
2022/02/16 08:27:37;;;;;;;24.95;12.68;;;5.60;89.20;;;;;;5013456;28;20025;-81
2022/02/16 08:30:04;;;;;;;21.92;13.48;;;5.70;88.90;;;;;;5014807;28;20032;-79
2022/02/16 08:32:30;;;;;;;22.33;12.25;;;5.80;89.40;;;;;;5013271;28;20033;-79
2022/02/16 08:34:56;;;;;;;21.05;10.60;;;5.90;85.20;;;;;;5013383;28;20029;-78
2022/02/16 08:37:22;;;;;;;16.05;10.07;;;6.00;83.80;;;;;;5013331;28;20025;-79
2022/02/16 08:39:47;;;;;;;19.60;9.98;;;6.10;83.00;;;;;;5014501;28;20018;-79
2022/02/16 08:42:13;;;;;;;15.63;10.13;;;6.10;78.80;;;;;;5020347;28;20056;-79
2022/02/16 08:44:39;;;;;;;19.50;10.73;;;6.20;77.80;;;;;;5033398;28;20029;-74
2022/02/16 08:47:05;;;;;;;16.38;11.20;;;6.30;76.70;;;;;;5033136;28;20474;-80
2022/02/16 08:49:31;;;;;;;16.73;9.50;;;6.30;75.70;;;;;;5029942;28;20024;-79
2022/02/16 08:51:56;;;;;;;18.38;9.57;;;6.50;73.80;;;;;;5032684;28;20506;-80
2022/02/16 08:54:22;;;;;;;15.52;9.02;;;6.50;72.60;;;;;;5029905;28;20418;-80
2022/02/16 08:56:49;;;;;;;17.35;8.73;;;6.60;72.60;;;;;;5016398;28;20018;-80
2022/02/16 08:59:15;;;;;;;15.85;8.43;;;6.70;73.00;;;;;;5012870;28;20048;-79
2022/02/16 09:01:41;;;;;;;15.27;9.20;;;6.70;70.70;;;;;;5013559;28;20030;-80
2022/02/16 09:04:07;;;;;;;12.18;8.35;;;6.80;71.40;;;;;;5013222;28;20065;-80
2022/02/16 09:06:34;;;;;;;12.55;7.88;;;6.80;71.30;;;;;;5013638;28;20025;-80
2022/02/16 09:09:01;;;;;;;11.90;7.75;;;6.70;69.70;;;;;;5013310;28;20117;-80
2022/02/16 09:11:29;;;;;;;13.93;8.10;;;6.70;70.50;;;;;;5013503;28;20084;-79
2022/02/16 09:13:56;;;;;;;13.70;8.50;;;6.70;70.70;;;;;;5013123;28;20494;-72
2022/02/16 09:16:21;;;;;;;15.48;8.85;;;6.70;70.10;;;;;;5012412;28;20104;-79
2022/02/16 09:18:47;;;;;;;12.63;8.05;;;6.70;68.80;;;;;;5011111;28;20122;-79
2022/02/16 09:21:12;;;;;;;12.32;8.07;;;6.70;69.10;;;;;;5012273;28;20026;-80
2022/02/16 09:23:40;;;;;;;12.35;7.82;;;6.80;68.90;;;;;;5010988;28;20034;-80
2022/02/16 09:26:06;;;;;;;11.98;7.70;;;6.80;68.70;;;;;;5012251;28;20025;-73
2022/02/16 09:28:33;;;;;;;17.35;8.80;;;7.00;69.40;;;;;;5011232;28;20026;-80
2022/02/16 09:31:00;;;;;;;15.43;8.23;;;7.10;68.90;;;;;;5013832;28;20030;-74
2022/02/16 09:33:27;;;;;;;12.57;7.93;;;7.20;68.10;;;;;;5011869;28;20045;-80
2022/02/16 09:35:53;;;;;;;17.10;9.20;;;7.20;67.90;;;;;;5014248;28;20034;-79
2022/02/16 09:38:19;;;;;;;13.25;8.55;;;7.20;67.40;;;;;;5013919;28;20427;-72
2022/02/16 09:40:46;;;;;;;13.95;8.77;;;7.40;68.30;;;;;;5014001;28;20033;-79
2022/02/16 09:43:14;;;;;;;16.98;8.40;;;7.40;66.70;;;;;;5013927;28;20487;-80
2022/02/16 09:45:40;;;;;;;19.00;8.05;;;7.40;65.90;;;;;;5012569;28;20041;-73
2022/02/16 09:48:06;;;;;;;13.77;7.97;;;7.40;64.60;;;;;;5013935;28;20032;-73
2022/02/16 09:50:34;;;;;;;11.68;7.20;;;7.50;64.00;;;;;;5009503;28;20043;-73
2022/02/16 09:53:01;;;;;;;12.85;6.90;;;7.60;64.00;;;;;;5012111;28;20118;-73
2022/02/16 09:55:27;;;;;;;11.55;6.50;;;7.60;63.00;;;;;;5013824;28;20065;-73
2022/02/16 09:57:53;;;;;;;13.32;7.05;;;7.70;62.30;;;;;;5012408;28;20033;-73
2022/02/16 10:00:19;;;;;;;10.07;6.95;;;7.70;62.30;;;;;;5013691;28;20030;-79
2022/02/16 10:02:46;;;;;;;15.32;6.78;;;7.90;62.70;;;;;;5013801;28;20033;-80
2022/02/16 10:05:14;;;;;;;7.97;5.38;;;8.00;62.00;;;;;;5012475;28;20036;-79
2022/02/16 10:07:45;;;;;;;8.82;5.40;;;8.10;60.60;;;;;;5012463;28;20122;-79
2022/02/16 10:10:14;;;;;;;10.32;5.32;;;8.10;59.00;;;;;;5013674;28;20474;-79
2022/02/16 10:12:40;;;;;;;9.70;5.22;;;8.20;59.30;;;;;;5012410;28;20034;-74
2022/02/16 10:15:07;;;;;;;11.90;6.03;;;8.30;58.30;;;;;;5013683;28;20072;-74
2022/02/16 10:17:32;;;;;;;11.70;5.90;;;8.30;58.40;;;;;;5012322;28;20065;-79
2022/02/16 10:20:04;;;;;;;9.55;5.68;;;8.30;57.40;;;;;;5012423;28;20434;-75
2022/02/16 10:22:42;;;;;;;8.50;5.53;;;8.30;57.10;;;;;;5013602;28;20390;-73
2022/02/16 10:25:14;;;;;;;12.60;7.18;;;8.30;57.20;;;;;;5012249;28;20502;-73
2022/02/16 10:28:03;;;;;;;9.65;5.00;;;8.40;57.70;;;;;;5013596;28;20108;-73
2022/02/16 10:30:29;;;;;;;9.13;5.35;;;8.40;56.50;;;;;;5013786;28;20029;-79
2022/02/16 10:33:15;;;;;;;9.00;4.50;;;8.40;55.80;;;;;;5012169;28;20486;-73
2022/02/16 10:35:40;;;;;;;6.53;4.30;;;8.50;56.20;;;;;;5013239;28;20018;-75
2022/02/16 10:38:06;;;;;;;9.70;4.90;;;8.50;54.90;;;;;;5013219;28;20037;-82
2022/02/16 10:40:32;;;;;;;7.78;5.43;;;8.50;54.90;;;;;;5012100;28;20049;-82
2022/02/16 10:43:01;;;;;;;10.40;6.18;;;8.50;54.90;;;;;;5013215;28;20033;-75
2022/02/16 10:45:30;;;;;;;9.98;5.40;;;8.60;55.10;;;;;;5014953;28;20025;-76
2022/02/16 10:48:07;;;;;;;6.15;4.68;;;8.60;55.90;;;;;;5015842;28;20018;-76
2022/02/16 10:50:43;;;;;;;11.07;4.45;;;8.60;55.30;;;;;;5016023;28;20026;-74
2022/02/16 10:53:09;;;;;;;8.60;5.43;;;8.70;54.70;;;;;;5016122;28;20376;-79
2022/02/16 10:55:35;;;;;;;6.43;4.18;;;8.70;53.30;;;;;;5015619;28;20537;-75
2022/02/16 10:58:03;;;;;;;8.43;5.07;;;8.90;53.60;;;;;;5015265;28;20022;-73
2022/02/16 11:00:31;;;;;;;8.88;4.38;;;8.90;53.50;;;;;;5015512;28;20017;-79
2022/02/16 11:02:59;;;;;;;8.88;5.43;;;9.00;54.60;;;;;;5015894;28;20034;-80
2022/02/16 11:05:25;;;;;;;6.22;4.20;;;9.00;55.10;;;;;;5016838;28;20025;-73
2022/02/16 11:07:53;;;;;;;9.30;4.95;;;9.00;54.00;;;;;;5015490;28;20034;-74
2022/02/16 11:10:20;;;;;;;8.88;4.78;;;9.10;54.60;;;;;;5015450;28;20022;-73
2022/02/16 11:12:46;;;;;;;6.10;4.35;;;9.20;55.20;;;;;;5016710;28;20029;-73
2022/02/16 11:15:14;;;;;;;6.35;4.18;;;9.20;54.10;;;;;;5016683;28;20109;-79
2022/02/16 11:17:40;;;;;;;7.07;4.40;;;9.20;52.70;;;;;;5016727;28;20022;-73
2022/02/16 11:20:24;;;;;;;5.78;4.22;;;9.20;53.00;;;;;;5016617;28;20014;-74
2022/02/16 11:22:55;;;;;;;9.95;4.43;;;9.30;53.60;;;;;;5015106;28;20112;-79
2022/02/16 11:25:27;;;;;;;8.60;5.03;;;9.20;53.00;;;;;;5015158;28;20057;-73
2022/02/16 11:27:53;;;;;;;7.40;4.73;;;9.20;53.10;;;;;;5016636;28;20391;-74
2022/02/16 11:30:34;;;;;;;6.40;4.40;;;9.20;52.70;;;;;;5016445;28;20018;-74
2022/02/16 11:33:13;;;;;;;9.32;5.05;;;9.10;53.30;;;;;;5015047;28;20037;-73
2022/02/16 11:35:52;;;;;;;9.05;5.40;;;9.10;53.80;;;;;;5016667;28;20026;-73
2022/02/16 11:38:22;;;;;;;8.38;4.60;;;9.20;53.80;;;;;;5016570;28;20026;-74
2022/02/16 11:40:56;;;;;;;6.93;4.88;;;9.20;53.10;;;;;;5014937;28;20026;-73
2022/02/16 11:43:53;;;;;;;10.65;4.80;;;9.20;54.10;;;;;;5016087;28;20108;-80
2022/02/16 11:46:42;;;;;;;8.57;5.55;;;9.20;52.90;;;;;;5012141;28;20038;-80
2022/02/16 11:49:27;;;;;;;8.68;4.80;;;9.20;53.40;;;;;;5014767;28;20124;-80
2022/02/16 11:51:57;;;;;;;10.23;5.22;;;9.30;54.10;;;;;;5015603;28;20058;-73
2022/02/16 11:54:46;;;;;;;6.90;4.93;;;9.50;54.90;;;;;;5014729;28;20049;-79
2022/02/16 11:57:30;;;;;;;7.20;5.75;;;9.40;53.60;;;;;;5013877;28;20022;-79
2022/02/16 11:59:57;;;;;;;8.10;4.15;;;9.60;53.70;;;;;;5014474;28;20030;-73
2022/02/16 12:02:22;;;;;;;6.60;4.38;;;9.60;52.80;;;;;;5015812;28;20088;-79
2022/02/16 12:04:54;;;;;;;9.50;4.93;;;9.60;52.40;;;;;;5014509;28;20014;-79
2022/02/16 12:07:31;;;;;;;8.73;4.93;;;9.50;52.00;;;;;;5015705;28;20033;-79
2022/02/16 12:10:20;;;;;;;11.82;5.68;;;9.60;52.70;;;;;;5015561;28;20053;-79
2022/02/16 12:12:47;;;;;;;8.88;5.07;;;9.40;52.60;;;;;;5014275;28;20040;-79
2022/02/16 12:15:16;;;;;;;9.07;4.82;;;9.40;52.70;;;;;;5014427;28;20049;-79
2022/02/16 12:17:41;;;;;;;8.00;5.38;;;9.40;52.80;;;;;;5015587;28;20026;-73
2022/02/16 12:20:08;;;;;;;9.38;5.55;;;9.40;52.80;;;;;;5014225;28;20079;-74
2022/02/16 12:22:33;;;;;;;8.65;5.32;;;9.40;53.80;;;;;;5015426;28;20108;-79
2022/02/16 12:25:17;;;;;;;9.50;4.90;;;9.50;53.50;;;;;;5014123;28;20117;-73
2022/02/16 12:27:44;;;;;;;7.72;5.28;;;9.50;53.40;;;;;;5014104;28;20054;-73
2022/02/16 12:30:10;;;;;;;8.27;4.65;;;9.60;52.80;;;;;;5015132;28;20437;-72
2022/02/16 12:32:35;;;;;;;7.85;4.43;;;9.60;52.50;;;;;;5013900;28;20096;-80